Time;durP1;ratioP1;P1;durP2;ratioP2;P2;SDS_P1;SDS_P2;PMS_P1;PMS_P2;Temp;Humidity;BMP_temperature;BMP_pressure;BME280_temperature;BME280_humidity;BME280_pressure;Samples;Min_cycle;Max_cycle;Signal;HPM_P1;HPM_P2
2023/08/26 00:02:24;;;;;;;7.60;6.80;;;;;;;20.47;100.00;156627.34;5016271;28;20549;-86
2023/08/26 00:04:51;;;;;;;7.83;7.03;;;;;;;20.48;100.00;156628.66;5031774;28;20960;-86
2023/08/26 00:07:17;;;;;;;7.20;6.50;;;;;;;20.47;100.00;156627.34;5059240;28;20454;-89
2023/08/26 00:09:44;;;;;;;6.90;6.30;;;;;;;20.49;100.00;156632.56;5049833;28;20466;-88
2023/08/26 00:12:10;;;;;;;8.67;7.20;;;;;;;20.49;100.00;156631.28;5045918;28;20461;-88
2023/08/26 00:14:38;;;;;;;7.73;6.70;;;;;;;20.43;100.00;156616.94;5051687;28;20455;-86
2023/08/26 00:17:05;;;;;;;8.27;7.50;;;;;;;20.46;100.00;156624.78;5051358;28;20458;-87
2023/08/26 00:19:32;;;;;;;7.57;6.87;;;;;;;20.45;100.00;156620.84;5065626;28;20486;-86
2023/08/26 00:21:59;;;;;;;6.90;6.17;;;;;;;20.41;100.00;156611.69;5033195;28;20471;-87
2023/08/26 00:24:26;;;;;;;10.73;7.40;;;;;;;20.43;100.00;156615.63;5050845;28;20458;-87
2023/08/26 00:26:52;;;;;;;7.00;6.37;;;;;;;20.36;100.00;156598.66;5059773;28;20964;-86
2023/08/26 00:29:19;;;;;;;7.93;6.83;;;;;;;20.34;100.00;156592.13;5032767;28;20451;-87
2023/08/26 00:31:47;;;;;;;7.80;7.07;;;;;;;20.30;100.00;156583.03;5058937;28;20478;-85
2023/08/26 00:34:13;;;;;;;7.57;6.87;;;;;;;20.30;100.00;156583.03;5018737;28;20454;-85
2023/08/26 00:36:40;;;;;;;7.50;6.80;;;;;;;20.26;100.00;156572.56;5033000;28;20655;-85
2023/08/26 00:39:06;;;;;;;7.00;6.30;;;;;;;20.23;100.00;156564.69;5032921;28;20444;-85
2023/08/26 00:41:33;;;;;;;9.90;7.20;;;;;;;20.23;100.00;156563.38;5032605;28;20457;-86
2023/08/26 00:43:59;;;;;;;7.63;6.93;;;;;;;20.19;100.00;156552.97;5064130;28;21033;-86
2023/08/26 00:46:26;;;;;;;7.83;7.03;;;;;;;20.15;100.00;156543.81;5015851;28;20459;-85
2023/08/26 00:48:54;;;;;;;7.80;7.10;;;;;;;20.16;100.00;156545.13;5016151;28;20562;-85
2023/08/26 00:51:21;;;;;;;7.93;7.13;;;;;;;20.19;100.00;156552.97;5032782;28;20518;-86
2023/08/26 00:53:48;;;;;;;8.77;6.83;;;;;;;20.19;100.00;156552.97;5011551;28;20886;-87
2023/08/26 00:56:14;;;;;;;7.43;6.73;;;;;;;20.19;100.00;156552.97;5023089;28;20542;-87
2023/08/26 00:58:42;;;;;;;8.33;7.40;;;;;;;20.17;100.00;156547.75;5012702;28;20579;-87
2023/08/26 01:01:08;;;;;;;7.20;6.60;;;;;;;20.16;100.00;156546.44;5031628;28;20886;-87
2023/08/26 01:03:35;;;;;;;8.33;7.33;;;;;;;20.09;100.00;156528.22;5048908;28;20513;-88
2023/08/26 01:06:04;;;;;;;6.83;6.13;;;;;;;20.11;100.00;156533.41;5031575;28;20432;-86
2023/08/26 01:08:31;;;;;;;8.10;6.37;;;;;;;20.11;100.00;156533.41;5032143;28;20439;-86
2023/08/26 01:11:03;;;;;;;7.63;6.57;;;;;;;20.10;100.00;156530.78;5042433;28;20471;-87
2023/08/26 01:13:34;;;;;;;6.93;5.63;;;;;;;20.03;100.00;156512.53;5025509;28;20516;-87
2023/08/26 01:16:02;;;;;;;7.67;4.80;;;;;;;20.01;100.00;156508.59;5033103;28;20522;-86
2023/08/26 01:18:29;;;;;;;5.40;4.90;;;;;;;19.97;100.00;156496.88;5016430;28;20529;-85
2023/08/26 01:20:56;;;;;;;6.23;5.30;;;;;;;19.97;100.00;156496.88;5059037;28;20967;-85
2023/08/26 01:23:35;;;;;;;5.70;4.60;;;;;;;19.95;100.00;156491.69;5011969;28;20597;-85
2023/08/26 01:26:01;;;;;;;6.40;4.97;;;;;;;19.95;100.00;156491.69;5012480;28;20515;-84
2023/08/26 01:28:28;;;;;;;7.00;4.90;;;;;;;19.96;100.00;156494.31;5046481;28;20480;-85
2023/08/26 01:30:56;;;;;;;4.27;3.87;;;;;;;19.91;100.00;156481.22;5032796;28;20490;-85
2023/08/26 01:33:26;;;;;;;4.90;3.97;;;;;;;19.88;100.00;156473.44;5064818;28;20443;-84
2023/08/26 01:35:59;;;;;;;5.47;3.83;;;;;;;19.88;100.00;156473.44;5032166;28;20522;-84
2023/08/26 01:38:26;;;;;;;4.20;3.80;;;;;;;19.87;100.00;156472.13;5018845;28;20455;-84
2023/08/26 01:40:56;;;;;;;4.60;3.97;;;;;;;19.84;100.00;156464.31;5055828;28;20815;-85
2023/08/26 01:43:23;;;;;;;4.17;3.77;;;;;;;19.82;100.00;156459.09;5050417;28;20473;-84
2023/08/26 01:45:51;;;;;;;4.87;3.70;;;;;;;19.84;100.00;156464.31;5036138;28;20439;-83
2023/08/26 01:48:19;;;;;;;4.37;3.97;;;;;;;19.83;100.00;156460.41;5049085;28;20457;-83
2023/08/26 01:50:46;;;;;;;4.00;3.60;;;;;;;19.81;100.00;156456.47;5061595;28;20462;-84
2023/08/26 01:53:12;;;;;;;4.77;4.00;;;;;;;19.80;100.00;156452.59;4995405;28;20559;-84
2023/08/26 01:55:39;;;;;;;4.10;3.67;;;;;;;19.76;100.00;156443.44;5015148;28;20466;-85
2023/08/26 01:58:07;;;;;;;4.20;3.80;;;;;;;19.76;100.00;156443.44;5033909;28;20923;-85
2023/08/26 02:00:34;;;;;;;4.70;4.20;;;;;;;19.73;100.00;156434.28;5013493;28;20922;-85
2023/08/26 02:03:01;;;;;;;4.37;3.53;;;;;;;19.73;100.00;156434.28;5028744;28;20519;-84
2023/08/26 02:05:27;;;;;;;4.90;4.40;;;;;;;19.78;100.00;156447.31;5044071;28;20528;-84
2023/08/26 02:07:54;;;;;;;4.50;4.00;;;;;;;19.77;100.00;156444.75;5017138;28;20485;-85
2023/08/26 02:10:20;;;;;;;4.83;4.40;;;;;;;19.78;100.00;156448.63;5049540;28;20463;-85
2023/08/26 02:12:47;;;;;;;4.03;3.63;;;;;;;19.77;100.00;156444.75;5031622;28;20439;-86
2023/08/26 02:15:15;;;;;;;5.70;3.87;;;;;;;19.73;100.00;156434.28;5059294;28;20459;-86
2023/08/26 02:17:41;;;;;;;5.43;3.63;;;;;;;19.70;100.00;156426.47;5010910;28;20471;-86
2023/08/26 02:20:09;;;;;;;4.23;3.73;;;;;;;19.70;100.00;156426.47;4995945;28;20451;-87
2023/08/26 02:22:35;;;;;;;5.40;4.20;;;;;;;19.68;100.00;156421.25;5018011;28;20528;-86
2023/08/26 02:25:03;;;;;;;5.00;3.90;;;;;;;19.66;100.00;156416.06;5044583;28;20469;-87
2023/08/26 02:27:29;;;;;;;4.47;3.70;;;;;;;19.66;100.00;156417.38;5014032;28;21211;-87
2023/08/26 02:29:56;;;;;;;4.80;4.13;;;;;;;19.63;100.00;156408.22;5058335;28;20467;-87
2023/08/26 02:32:23;;;;;;;4.67;4.27;;;;;;;19.65;100.00;156413.44;5039313;28;20467;-87
2023/08/26 02:34:50;;;;;;;5.80;3.73;;;;;;;19.63;100.00;156409.53;5028355;28;20459;-87
2023/08/26 02:37:16;;;;;;;4.03;3.57;;;;;;;19.62;100.00;156405.66;5028611;28;20459;-87
2023/08/26 02:39:45;;;;;;;6.50;4.17;;;;;;;19.60;100.00;156400.41;5061216;28;20479;-88
2023/08/26 02:42:12;;;;;;;4.57;3.80;;;;;;;19.61;100.00;156404.34;5041537;28;20793;-88
2023/08/26 02:44:38;;;;;;;4.57;3.80;;;;;;;19.62;100.00;156406.91;5039919;28;20491;-88
2023/08/26 02:47:05;;;;;;;4.30;3.67;;;;;;;19.60;100.00;156400.41;5044539;28;20547;-87
2023/08/26 02:49:33;;;;;;;3.80;3.00;;;;;;;19.58;100.00;156395.19;5031574;28;20455;-88
2023/08/26 02:52:00;;;;;;;4.23;3.37;;;;;;;19.56;100.00;156391.31;5031503;28;20594;-87
2023/08/26 02:54:27;;;;;;;4.30;3.87;;;;;;;19.56;100.00;156390.00;5014348;28;20550;-87
2023/08/26 02:56:53;;;;;;;4.00;3.60;;;;;;;19.54;100.00;156384.78;5057658;28;20436;-88
2023/08/26 02:59:21;;;;;;;3.70;3.10;;;;;;;19.53;100.00;156383.47;5003495;28;20467;-88
2023/08/26 03:01:58;;;;;;;5.33;3.63;;;;;;;19.51;100.00;156378.28;5031069;28;20455;-88
2023/08/26 03:04:25;;;;;;;4.07;3.37;;;;;;;19.48;100.00;156369.13;5064593;28;20477;-88
2023/08/26 03:06:53;;;;;;;4.27;3.87;;;;;;;19.42;100.00;156356.09;5026705;28;20452;-88
2023/08/26 03:09:20;;;;;;;5.47;3.63;;;;;;;19.42;100.00;156356.09;5067553;28;20465;-88
2023/08/26 03:11:46;;;;;;;4.80;3.50;;;;;;;19.39;100.00;156348.28;5034129;28;20460;-88
2023/08/26 03:14:13;;;;;;;4.40;4.00;;;;;;;19.38;100.00;156345.66;5054423;28;20457;-88
2023/08/26 03:16:40;;;;;;;5.93;3.70;;;;;;;19.36;100.00;156340.41;5050588;28;20442;-88
2023/08/26 03:19:07;;;;;;;4.47;4.07;;;;;;;19.36;100.00;156339.09;5034170;28;20461;-89
2023/08/26 03:21:33;;;;;;;4.27;3.87;;;;;;;19.34;100.00;156333.88;5023792;28;21026;-89
2023/08/26 03:24:01;;;;;;;7.30;3.93;;;;;;;19.30;100.00;156324.75;5057258;28;20484;-89
2023/08/26 03:26:28;;;;;;;6.53;4.40;;;;;;;19.30;100.00;156323.47;5023285;28;20815;-89
2023/08/26 03:28:55;;;;;;;6.03;4.47;;;;;;;19.29;100.00;156322.16;5031933;28;20462;-89
2023/08/26 03:31:21;;;;;;;4.33;3.93;;;;;;;19.27;100.00;156316.91;5046856;28;20857;-89
2023/08/26 03:33:49;;;;;;;4.43;3.87;;;;;;;19.25;100.00;156311.72;5007722;28;20950;-89
2023/08/26 03:36:17;;;;;;;4.97;4.47;;;;;;;19.23;100.00;156306.53;5016853;28;20545;-90
2023/08/26 03:38:43;;;;;;;5.53;4.57;;;;;;;19.18;100.00;156293.50;5049163;28;20475;-76
2023/08/26 03:41:11;;;;;;;5.03;4.60;;;;;;;19.18;100.00;156293.50;5034995;28;20434;-72
2023/08/26 03:43:38;;;;;;;6.83;4.03;;;;;;;19.17;100.00;156289.53;5027374;28;20867;-72
2023/08/26 03:46:05;;;;;;;5.23;4.20;;;;;;;19.16;100.00;156288.28;5038019;28;20447;-72
2023/08/26 03:48:32;;;;;;;4.77;3.70;;;;;;;19.13;100.00;156280.47;5030598;28;20447;-72
2023/08/26 03:50:59;;;;;;;6.23;4.67;;;;;;;19.15;100.00;156284.34;5054329;28;20447;-72
2023/08/26 03:53:27;;;;;;;6.73;4.97;;;;;;;19.11;100.00;156275.25;5052310;28;20947;-72
2023/08/26 03:55:53;;;;;;;5.93;4.27;;;;;;;19.07;100.00;156263.50;5040731;28;20445;-73
2023/08/26 03:58:21;;;;;;;6.00;5.00;;;;;;;19.06;100.00;156260.91;5026522;28;20549;-72
2023/08/26 04:00:48;;;;;;;5.57;4.43;;;;;;;19.06;100.00;156262.19;5029456;28;20462;-73
2023/08/26 04:03:15;;;;;;;5.60;5.10;;;;;;;19.04;100.00;156256.97;5044613;28;20479;-72
2023/08/26 04:05:41;;;;;;;8.63;5.27;;;;;;;19.05;100.00;156259.59;5029412;28;20463;-72
2023/08/26 04:08:08;;;;;;;6.10;5.40;;;;;;;19.03;100.00;156254.41;5049872;28;20463;-73
2023/08/26 04:10:35;;;;;;;5.40;4.83;;;;;;;19.04;100.00;156255.66;5036097;28;20459;-72
2023/08/26 04:13:04;;;;;;;6.17;5.10;;;;;;;19.04;100.00;156255.66;5034152;28;20456;-72
2023/08/26 04:15:33;;;;;;;5.23;4.73;;;;;;;19.04;100.00;156255.66;5037137;28;20945;-72
2023/08/26 04:17:59;;;;;;;5.17;4.70;;;;;;;19.03;100.00;156253.09;5050393;28;20450;-72
2023/08/26 04:20:26;;;;;;;6.23;4.83;;;;;;;19.04;100.00;156255.66;5020219;28;20574;-73
2023/08/26 04:22:52;;;;;;;8.27;5.57;;;;;;;19.04;100.00;156256.97;5011612;28;20494;-72
2023/08/26 04:25:19;;;;;;;5.43;4.93;;;;;;;19.02;100.00;156250.47;5025872;28;20450;-73
2023/08/26 04:27:45;;;;;;;6.70;6.10;;;;;;;19.02;100.00;156251.78;5045134;28;20466;-73
2023/08/26 04:30:13;;;;;;;6.57;4.50;;;;;;;19.00;100.00;156246.59;5035752;28;20451;-72
2023/08/26 04:32:41;;;;;;;5.77;5.17;;;;;;;19.02;100.00;156250.47;5039792;28;20459;-72
2023/08/26 04:35:08;;;;;;;6.90;5.07;;;;;;;19.01;100.00;156247.91;5028555;28;20800;-72
2023/08/26 04:37:34;;;;;;;5.40;4.90;;;;;;;18.99;100.00;156243.97;4999485;28;20456;-72
2023/08/26 04:40:07;;;;;;;5.63;5.13;;;;;;;19.00;100.00;156245.28;5044164;28;20756;-72
2023/08/26 04:42:35;;;;;;;7.33;5.53;;;;;;;18.99;100.00;156243.97;5012526;28;20533;-72
2023/08/26 04:45:03;;;;;;;5.50;5.00;;;;;;;18.98;100.00;156241.38;5053531;28;20486;-72
2023/08/26 04:47:29;;;;;;;5.90;5.20;;;;;;;18.96;100.00;156236.13;5050124;28;20447;-73
2023/08/26 04:49:58;;;;;;;6.47;5.87;;;;;;;18.99;100.00;156243.97;5028957;28;20530;-73
2023/08/26 04:52:24;;;;;;;7.30;5.93;;;;;;;18.98;100.00;156241.38;5024382;28;20494;-73
2023/08/26 04:54:52;;;;;;;6.77;6.07;;;;;;;18.93;100.00;156228.31;5037842;28;20467;-73
2023/08/26 04:57:18;;;;;;;7.30;6.00;;;;;;;18.96;100.00;156234.81;5037305;28;20535;-73
2023/08/26 04:59:45;;;;;;;6.60;5.50;;;;;;;18.94;100.00;156230.94;5021755;28;20546;-73
2023/08/26 05:02:12;;;;;;;8.63;6.77;;;;;;;18.93;100.00;156228.31;5015560;28;20459;-73
2023/08/26 05:04:38;;;;;;;6.90;6.20;;;;;;;18.92;100.00;156225.72;5040375;28;20537;-73
2023/08/26 05:07:06;;;;;;;6.77;5.83;;;;;;;18.91;100.00;156223.09;5021630;28;20466;-73
2023/08/26 05:09:33;;;;;;;6.77;6.00;;;;;;;18.96;100.00;156236.13;5001239;28;20456;-72
2023/08/26 05:11:59;;;;;;;7.10;5.90;;;;;;;18.91;100.00;156223.09;5005060;28;20452;-73
2023/08/26 05:14:26;;;;;;;7.97;5.33;;;;;;;18.96;100.00;156236.13;5034215;28;20533;-72
2023/08/26 05:16:53;;;;;;;7.20;6.10;;;;;;;18.94;100.00;156230.94;5038346;28;20541;-72
2023/08/26 05:19:19;;;;;;;7.10;6.37;;;;;;;18.96;100.00;156234.81;5013269;28;20455;-73
2023/08/26 05:21:46;;;;;;;6.70;5.90;;;;;;;18.94;100.00;156230.94;5071597;28;20449;-73
2023/08/26 05:24:14;;;;;;;7.17;6.43;;;;;;;18.91;100.00;156223.09;5037268;28;20480;-72
2023/08/26 05:26:42;;;;;;;7.50;6.27;;;;;;;18.92;100.00;156224.41;5071390;28;20462;-73
2023/08/26 05:29:09;;;;;;;6.90;5.57;;;;;;;18.91;100.00;156223.09;5018782;28;20481;-73
2023/08/26 05:31:36;;;;;;;7.07;6.27;;;;;;;18.92;100.00;156225.72;5038307;28;20447;-78
2023/08/26 05:34:03;;;;;;;8.00;6.70;;;;;;;18.91;100.00;156223.09;5055821;28;20442;-78
2023/08/26 05:36:29;;;;;;;7.63;6.37;;;;;;;18.93;100.00;156228.31;5000688;28;20591;-78
2023/08/26 05:38:56;;;;;;;11.37;7.00;;;;;;;18.98;100.00;156241.38;5052790;28;20461;-78
2023/08/26 05:41:25;;;;;;;9.43;6.83;;;;;;;18.97;100.00;156237.44;5054026;28;20483;-77
2023/08/26 05:43:51;;;;;;;7.50;6.60;;;;;;;18.97;100.00;156237.44;5069872;28;20469;-78
2023/08/26 05:46:18;;;;;;;6.90;6.23;;;;;;;18.95;100.00;156233.56;5034682;28;20897;-78
2023/08/26 05:48:44;;;;;;;7.20;6.47;;;;;;;18.95;100.00;156233.56;5033514;28;20458;-78
2023/08/26 05:51:11;;;;;;;12.00;6.70;;;;;;;19.02;100.00;156251.78;5055221;28;20459;-78
2023/08/26 05:53:38;;;;;;;6.70;6.00;;;;;;;19.03;100.00;156253.09;5053869;28;20481;-78
2023/08/26 05:56:05;;;;;;;8.17;6.80;;;;;;;19.08;100.00;156266.13;5031184;28;20453;-78
2023/08/26 05:58:33;;;;;;;8.20;6.90;;;;;;;19.14;100.00;156283.03;5037119;28;20545;-78
2023/08/26 06:00:59;;;;;;;8.20;6.90;;;;;;;19.18;100.00;156293.50;5053544;28;20452;-78
2023/08/26 06:03:26;;;;;;;7.20;6.43;;;;;;;19.32;100.00;156330.00;5038853;28;20449;-78
2023/08/26 06:05:52;;;;;;;6.73;5.97;;;;;;;19.54;100.00;156386.06;5031328;28;20454;-78
2023/08/26 06:08:19;;;;;;;6.20;5.30;;;;;;;19.69;100.00;156425.19;5036699;28;21013;-78
2023/08/26 06:10:46;;;;;;;7.90;7.07;;;;;;;19.83;100.00;156460.41;5054043;28;20482;-78
2023/08/26 06:13:12;;;;;;;7.37;6.43;;;;;;;20.03;100.00;156512.53;5035056;28;20557;-78
2023/08/26 06:15:40;;;;;;;8.67;6.40;;;;;;;20.15;100.00;156543.81;5035685;28;20450;-78
2023/08/26 06:18:07;;;;;;;6.80;5.40;;;;;;;20.15;100.00;156543.81;5055931;28;20521;-78
2023/08/26 06:20:34;;;;;;;7.43;5.20;;;;;;;20.18;100.00;156551.66;5037262;28;20805;-78
2023/08/26 06:23:00;;;;;;;7.67;6.10;;;;;;;20.24;100.00;156567.38;5014823;28;20451;-80
2023/08/26 06:25:27;;;;;;;5.97;5.40;;;;;;;20.32;100.00;156588.25;5054937;28;20481;-80
2023/08/26 06:27:54;;;;;;;7.17;5.33;;;;;;;20.47;100.00;156626.03;5020905;28;20794;-79
2023/08/26 06:30:22;;;;;;;7.10;5.80;;;;;;;20.65;100.00;156674.31;5070700;28;20545;-78
2023/08/26 06:32:50;;;;;;;6.87;5.90;;;;;;;20.72;100.00;156689.97;5031071;28;20458;-78
2023/08/26 06:35:18;;;;;;;5.53;4.80;;;;;;;20.79;100.00;156709.53;5065958;28;20500;-77
2023/08/26 06:37:46;;;;;;;6.33;5.53;;;;;;;20.81;100.00;156713.47;5052812;28;20444;-77
2023/08/26 06:40:13;;;;;;;7.47;5.63;;;;;;;20.93;100.00;156746.09;5002389;28;20577;-78
2023/08/26 06:42:41;;;;;;;7.60;5.97;;;;;;;20.98;100.00;156757.81;5051356;28;20453;-78
2023/08/26 06:45:12;;;;;;;6.87;5.17;;;;;;;21.04;100.00;156773.50;5038404;28;20478;-78
2023/08/26 06:47:39;;;;;;;5.23;4.73;;;;;;;21.03;100.00;156770.88;5023353;28;20449;-78
2023/08/26 06:50:09;;;;;;;8.20;5.83;;;;;;;20.92;100.00;156743.47;5068705;28;20450;-78
2023/08/26 06:52:35;;;;;;;6.27;5.23;;;;;;;20.89;100.00;156735.63;5053212;28;20483;-78
2023/08/26 06:55:04;;;;;;;6.20;4.70;;;;;;;20.86;100.00;156726.53;5073853;28;20458;-78
2023/08/26 06:57:30;;;;;;;8.77;6.13;;;;;;;20.79;100.00;156709.53;5023951;28;20444;-78
2023/08/26 06:59:57;;;;;;;5.80;5.30;;;;;;;20.69;100.00;156682.16;5047600;28;20463;-73
2023/08/26 07:02:23;;;;;;;6.57;5.50;;;;;;;20.63;100.00;156669.09;5055401;28;20462;-73
2023/08/26 07:04:50;;;;;;;8.00;5.73;;;;;;;20.56;100.00;156649.53;5072497;28;20466;-73
2023/08/26 07:07:18;;;;;;;6.40;5.60;;;;;;;20.58;100.00;156656.06;5054320;28;20446;-73
2023/08/26 07:09:44;;;;;;;6.17;5.63;;;;;;;20.55;100.00;156648.22;5051413;28;20799;-73
2023/08/26 07:12:12;;;;;;;9.27;6.30;;;;;;;20.45;100.00;156622.16;5069793;28;20518;-73
2023/08/26 07:14:39;;;;;;;6.03;5.43;;;;;;;20.40;100.00;156607.78;5056110;28;20445;-73
2023/08/26 07:17:05;;;;;;;6.73;5.10;;;;;;;20.38;100.00;156603.91;5053277;28;20458;-73
2023/08/26 07:19:32;;;;;;;8.33;5.63;;;;;;;20.50;100.00;156635.19;5069095;28;20871;-73
2023/08/26 07:21:58;;;;;;;7.30;6.00;;;;;;;20.48;100.00;156628.66;5056776;28;20848;-73
2023/08/26 07:24:26;;;;;;;6.77;5.80;;;;;;;20.41;100.00;156610.44;5056962;28;20474;-73
2023/08/26 07:26:53;;;;;;;8.30;6.57;;;;;;;20.39;100.00;156606.47;5050737;28;20454;-73
2023/08/26 07:29:19;;;;;;;7.03;5.97;;;;;;;20.35;100.00;156596.06;5069337;28;20463;-73
2023/08/26 07:31:46;;;;;;;8.73;6.40;;;;;;;20.33;100.00;156590.81;5056383;28;20944;-73
2023/08/26 07:34:12;;;;;;;7.80;6.53;;;;;;;20.42;100.00;156614.31;5058016;28;20469;-74
2023/08/26 07:36:39;;;;;;;7.70;6.50;;;;;;;20.57;100.00;156652.16;5064834;28;20457;-73
2023/08/26 07:39:05;;;;;;;7.07;6.37;;;;;;;20.79;100.00;156709.53;5054375;28;21010;-73
2023/08/26 07:41:33;;;;;;;7.47;6.77;;;;;;;20.86;100.00;156726.53;5057144;28;20887;-73
2023/08/26 07:44:00;;;;;;;7.13;6.53;;;;;;;20.83;100.00;156720.00;5055065;28;20489;-73
2023/08/26 07:46:26;;;;;;;7.40;5.70;;;;;;;20.77;100.00;156703.03;5038551;28;20443;-73
2023/08/26 07:48:53;;;;;;;8.07;6.00;;;;;;;20.80;100.00;156712.16;5052859;28;20453;-73
2023/08/26 07:51:19;;;;;;;11.50;6.10;;;;;;;20.87;100.00;156729.09;5020676;28;20503;-73
2023/08/26 07:53:46;;;;;;;6.20;5.60;;;;;;;20.88;100.00;156731.75;5064448;28;21026;-74
2023/08/26 07:56:12;;;;;;;5.70;5.20;;;;;;;20.88;100.00;156731.75;5055887;28;20497;-74
2023/08/26 07:58:40;;;;;;;5.67;5.17;;;;;;;20.92;100.00;156743.47;5055606;28;20469;-74
2023/08/26 08:01:07;;;;;;;7.87;5.13;;;;;;;20.93;100.00;156744.78;5072126;28;20446;-74
2023/08/26 08:03:33;;;;;;;5.67;4.70;;;;;;;20.98;100.00;156757.81;5029949;28;20455;-74
2023/08/26 08:06:00;;;;;;;8.30;5.03;;;;;;;21.08;100.00;156783.97;5056525;28;20821;-77
2023/08/26 08:08:26;;;;;;;6.77;5.03;;;;;;;21.09;100.00;156787.91;5056308;28;20822;-76
2023/08/26 08:10:53;;;;;;;4.77;4.37;;;;;;;21.15;100.00;156802.25;5050471;28;20459;-76
2023/08/26 08:13:19;;;;;;;7.10;5.43;;;;;;;21.15;100.00;156802.25;5050753;28;20970;-76
2023/08/26 08:15:47;;;;;;;7.07;5.70;;;;;;;21.09;100.00;156786.59;5037616;28;20473;-76
2023/08/26 08:18:14;;;;;;;9.13;5.63;;;;;;;20.96;100.00;156752.63;5068716;28;20816;-76
2023/08/26 08:20:41;;;;;;;7.07;6.00;;;;;;;21.01;100.00;156765.66;5051327;28;20499;-78
2023/08/26 08:23:07;;;;;;;6.50;5.17;;;;;;;20.91;100.00;156739.56;5052861;28;20457;-76
2023/08/26 08:25:34;;;;;;;5.43;4.80;;;;;;;20.98;100.00;156759.13;5015977;28;20487;-75
2023/08/26 08:28:03;;;;;;;5.63;5.03;;;;;;;20.98;100.00;156757.81;5054278;28;20452;-75
2023/08/26 08:30:30;;;;;;;6.70;5.13;;;;;;;20.97;100.00;156755.25;5052398;28;20449;-75
2023/08/26 08:32:58;;;;;;;6.87;5.57;;;;;;;20.94;100.00;156747.41;5055989;28;20459;-75
2023/08/26 08:35:24;;;;;;;7.43;5.60;;;;;;;20.90;100.00;156738.25;5052862;28;20543;-75
2023/08/26 08:37:51;;;;;;;5.83;5.27;;;;;;;20.84;100.00;156721.28;5061568;28;20451;-77
2023/08/26 08:40:18;;;;;;;6.53;5.00;;;;;;;20.89;100.00;156735.63;5051217;28;20455;-75
2023/08/26 08:42:45;;;;;;;6.43;5.83;;;;;;;20.96;100.00;156752.63;5054236;28;20505;-76
2023/08/26 08:45:12;;;;;;;7.47;4.63;;;;;;;20.90;100.00;156736.94;5039236;28;20471;-75
2023/08/26 08:47:38;;;;;;;5.90;4.50;;;;;;;20.91;100.00;156739.56;5034273;28;20458;-74
2023/08/26 08:50:08;;;;;;;6.10;4.90;;;;;;;21.07;100.00;156782.69;5066552;28;20579;-73
2023/08/26 08:52:34;;;;;;;7.13;5.80;;;;;;;21.00;100.00;156764.34;5033283;28;20589;-73
2023/08/26 08:55:01;;;;;;;7.77;5.53;;;;;;;21.03;100.00;156772.19;5048569;28;20461;-74
2023/08/26 08:57:30;;;;;;;6.50;5.50;;;;;;;20.99;100.00;156760.44;5049851;28;20823;-74
2023/08/26 08:59:57;;;;;;;5.63;5.10;;;;;;;21.03;100.00;156772.19;5069090;28;20467;-77
2023/08/26 09:02:23;;;;;;;6.00;5.50;;;;;;;21.01;99.89;156765.66;5071208;28;20568;-77
2023/08/26 09:04:50;;;;;;;5.83;5.33;;;;;;;20.97;99.06;156755.25;5051582;28;20490;-76
2023/08/26 09:07:18;;;;;;;8.83;5.30;;;;;;;20.99;98.38;156760.44;5030032;28;20458;-76
2023/08/26 09:09:45;;;;;;;6.27;5.60;;;;;;;20.94;99.17;156748.69;5053878;28;20524;-76
2023/08/26 09:12:11;;;;;;;6.60;5.63;;;;;;;20.94;100.00;156747.41;5053289;28;20454;-76
2023/08/26 09:14:38;;;;;;;10.00;6.17;;;;;;;20.95;99.65;156750.00;5062759;28;20454;-76
2023/08/26 09:17:16;;;;;;;5.90;5.10;;;;;;;20.88;100.00;156733.06;5050305;28;20450;-75
2023/08/26 09:19:51;;;;;;;6.10;5.50;;;;;;;20.85;100.00;156725.22;5067219;28;20545;-76
2023/08/26 09:22:20;;;;;;;7.00;5.80;;;;;;;20.86;99.86;156727.84;5068119;28;20465;-79
2023/08/26 09:24:46;;;;;;;9.47;6.00;;;;;;;20.81;99.23;156713.47;5049786;28;20466;-76
2023/08/26 09:27:15;;;;;;;7.30;5.93;;;;;;;20.79;99.04;156709.53;5056112;28;20449;-76
2023/08/26 09:29:42;;;;;;;7.77;6.30;;;;;;;20.76;99.46;156700.44;5055536;28;20455;-76
2023/08/26 09:32:08;;;;;;;6.70;5.97;;;;;;;20.77;99.60;156703.03;5068028;28;20457;-76
2023/08/26 09:34:36;;;;;;;6.47;5.87;;;;;;;20.79;100.00;156708.22;5067391;28;20469;-76
2023/08/26 09:37:03;;;;;;;9.07;5.87;;;;;;;20.76;100.00;156700.44;5056357;28;20469;-76
2023/08/26 09:39:31;;;;;;;6.63;6.03;;;;;;;20.74;100.00;156696.50;5071520;28;20446;-76
2023/08/26 09:41:59;;;;;;;8.70;6.37;;;;;;;20.79;99.58;156709.53;5053280;28;20462;-76
2023/08/26 09:44:27;;;;;;;7.40;6.13;;;;;;;20.79;98.67;156708.22;5035093;28;20544;-76
2023/08/26 09:46:56;;;;;;;7.40;5.50;;;;;;;20.76;98.24;156700.44;5071919;28;20470;-76
2023/08/26 09:49:22;;;;;;;6.77;6.07;;;;;;;20.82;100.00;156716.06;5066655;28;20545;-76
2023/08/26 09:51:51;;;;;;;8.03;5.80;;;;;;;20.90;97.95;156736.94;5018290;28;20451;-76
2023/08/26 09:54:18;;;;;;;6.00;5.10;;;;;;;20.97;97.34;156755.25;5036199;28;20485;-76
2023/08/26 09:56:47;;;;;;;6.10;5.50;;;;;;;21.03;96.91;156770.88;5035303;28;20443;-76
2023/08/26 09:59:14;;;;;;;6.80;5.83;;;;;;;21.04;97.67;156773.50;5065575;28;20475;-76
2023/08/26 10:01:41;;;;;;;6.77;5.70;;;;;;;21.14;97.50;156799.63;5066561;28;20458;-76
2023/08/26 10:04:09;;;;;;;9.07;5.37;;;;;;;21.16;97.80;156806.16;5032109;28;20458;-75
2023/08/26 10:06:40;;;;;;;6.47;5.87;;;;;;;21.18;97.90;156810.09;5019669;28;20478;-75
2023/08/26 10:09:09;;;;;;;6.70;5.87;;;;;;;21.27;96.69;156833.56;5050298;28;20964;-76
2023/08/26 10:11:38;;;;;;;6.63;5.93;;;;;;;21.30;94.19;156841.41;5065680;28;20935;-76
2023/08/26 10:14:11;;;;;;;8.57;6.50;;;;;;;21.26;94.14;156830.94;5054846;28;20580;-75
2023/08/26 10:16:38;;;;;;;9.23;6.30;;;;;;;21.23;94.43;156823.16;5048605;28;20447;-75
2023/08/26 10:19:05;;;;;;;8.33;5.53;;;;;;;21.18;95.78;156811.38;5034656;28;20486;-76
2023/08/26 10:21:32;;;;;;;7.20;5.80;;;;;;;21.14;95.16;156799.63;5071920;28;21057;-75
2023/08/26 10:23:59;;;;;;;6.60;5.80;;;;;;;21.09;94.16;156786.59;5071530;28;20454;-76
2023/08/26 10:26:26;;;;;;;5.90;5.40;;;;;;;21.05;95.76;156776.06;5054867;28;20582;-75
2023/08/26 10:28:54;;;;;;;7.53;6.30;;;;;;;21.08;96.16;156783.97;5070552;28;20455;-76
2023/08/26 10:31:32;;;;;;;7.67;6.80;;;;;;;21.16;100.00;156804.84;5058860;28;20619;-76
2023/08/26 10:34:00;;;;;;;7.73;6.30;;;;;;;21.08;100.00;156785.28;5019084;28;20865;-75
2023/08/26 10:36:28;;;;;;;8.10;7.40;;;;;;;21.09;98.10;156787.91;5033029;28;20462;-75
2023/08/26 10:38:56;;;;;;;7.77;7.00;;;;;;;21.14;99.31;156799.63;5056390;28;20493;-75
2023/08/26 10:41:23;;;;;;;11.10;7.10;;;;;;;21.13;98.66;156797.00;5071794;28;20451;-76
2023/08/26 10:43:53;;;;;;;8.27;7.47;;;;;;;21.08;99.04;156785.28;5054543;28;21155;-75
2023/08/26 10:46:33;;;;;;;7.13;6.43;;;;;;;21.05;98.88;156776.06;5056335;28;20994;-76
2023/08/26 10:49:00;;;;;;;7.13;6.43;;;;;;;20.94;99.08;156747.41;5055807;28;20454;-75
2023/08/26 10:51:27;;;;;;;9.13;7.03;;;;;;;20.94;100.00;156747.41;5073293;28;20520;-75
2023/08/26 10:54:00;;;;;;;10.13;7.50;;;;;;;20.92;100.00;156742.16;4999607;28;20843;-75
2023/08/26 10:56:28;;;;;;;8.70;7.60;;;;;;;20.94;100.00;156747.41;5014407;28;20530;-76
2023/08/26 10:59:01;;;;;;;7.23;6.43;;;;;;;20.91;100.00;156739.56;5018316;28;20454;-76
2023/08/26 11:01:27;;;;;;;7.70;6.40;;;;;;;20.88;100.00;156731.75;4999805;28;20463;-76
2023/08/26 11:03:56;;;;;;;7.40;6.70;;;;;;;20.86;100.00;156726.53;5014844;28;20448;-76
2023/08/26 11:06:23;;;;;;;6.70;6.10;;;;;;;20.89;100.00;156735.63;5009536;28;20475;-76
2023/08/26 11:08:53;;;;;;;6.57;5.77;;;;;;;20.85;100.00;156723.91;5017406;28;20463;-76
2023/08/26 11:11:20;;;;;;;8.00;6.47;;;;;;;20.83;99.40;156720.00;4995663;28;20448;-75
2023/08/26 11:13:47;;;;;;;8.47;7.63;;;;;;;20.80;100.00;156710.84;5031756;28;20463;-76
2023/08/26 11:16:14;;;;;;;6.30;5.73;;;;;;;20.84;98.77;156722.59;5015180;28;20518;-76
2023/08/26 11:18:42;;;;;;;6.67;5.97;;;;;;;20.84;97.71;156722.59;5013749;28;20466;-75